sim
Sign-in with your pilot id or email,
or register
Callsign
Passwort

Schedule Details

Flight Number: OEO7693
Departure: Tampa International Airport (KTPA) at 20:10
Arrival: Munich Airport (EDDM) at 05:45

Weather Information
Getting current METAR information for KTPA 221653Z 06010G15KT 030V100 10SM BKN035 BKN065 29/19 A3007 RMK AO2 SLP181 T02890189
Getting current METAR information for EDDM 221650Z 07002KT 9999 FEW040CB 20/15 Q1010 NOSIG

Schedule Frequency

Route Map